Time;durP1;ratioP1;P1;durP2;ratioP2;P2;SDS_P1;SDS_P2;PMS_P1;PMS_P2;Temp;Humidity;BMP_temperature;BMP_pressure;BME280_temperature;BME280_humidity;BME280_pressure;Samples;Min_cycle;Max_cycle;Signal;HPM_P1;HPM_P2
2023/04/05 00:02:28;;;;;;;7.23;4.97;;;;;;;3.16;41.14;100023.41;10396486;28;20503;-67
2023/04/05 00:07:33;;;;;;;7.43;4.70;;;;;;;4.58;39.60;99996.84;10398700;28;20244;-67
2023/04/05 00:12:34;;;;;;;7.13;5.43;;;;;;;3.71;40.87;100002.78;10399515;28;20313;-67
2023/04/05 00:17:36;;;;;;;5.83;5.20;;;;;;;2.84;41.86;100006.63;10399243;28;20474;-67
2023/04/05 00:22:40;;;;;;;6.77;5.43;;;;;;;3.81;41.14;99968.41;10401241;28;20316;-67
2023/04/05 00:27:43;;;;;;;6.77;5.00;;;;;;;3.66;40.69;99975.88;10398558;28;20730;-67
2023/04/05 00:32:49;;;;;;;7.67;4.80;;;;;;;3.33;41.63;99979.66;10402076;28;20232;-68
2023/04/05 00:37:50;;;;;;;6.63;5.30;;;;;;;3.54;41.24;99972.50;10405921;28;20255;-67
2023/04/05 00:42:52;;;;;;;5.93;4.97;;;;;;;3.78;40.51;99958.94;10404931;28;20243;-67
2023/04/05 00:47:54;;;;;;;6.67;5.23;;;;;;;3.63;41.19;99955.84;10402576;28;20240;-67
2023/04/05 00:52:57;;;;;;;6.50;5.80;;;;;;;3.72;41.30;99954.19;10400996;28;20599;-67
2023/04/05 00:57:59;;;;;;;7.47;5.43;;;;;;;5.44;39.13;99937.56;10405222;28;20239;-67
2023/04/05 01:03:03;;;;;;;6.53;4.97;;;;;;;3.62;40.92;99970.03;10397642;28;20785;-67
2023/04/05 01:08:42;;;;;;;7.40;5.63;;;;;;;4.17;40.34;99956.34;10405363;28;20315;-67
2023/04/05 01:13:45;;;;;;;7.37;5.90;;;;;;;3.21;41.84;99952.47;10399322;28;20224;-68
2023/04/05 01:18:47;;;;;;;5.90;5.30;;;;;;;2.98;41.92;99934.13;10406966;28;20289;-67
2023/04/05 01:24:13;;;;;;;6.93;5.60;;;;;;;3.37;41.87;99917.59;10404206;28;20239;-67
2023/04/05 01:29:16;;;;;;;6.27;5.07;;;;;;;1.96;43.68;99941.66;10404806;28;20244;-68
2023/04/05 01:34:40;;;;;;;5.70;5.10;;;;;;;2.06;43.01;99944.41;10396454;28;20327;-67
2023/04/05 01:39:46;;;;;;;7.43;6.10;;;;;;;3.41;41.66;99893.38;10397623;28;20234;-67
2023/04/05 01:44:47;;;;;;;7.83;5.37;;;;;;;3.19;41.66;99902.38;10402754;28;20269;-67
2023/04/05 01:49:49;;;;;;;6.10;5.20;;;;;;;3.24;41.64;99897.50;10408994;28;20243;-67
2023/04/05 01:54:51;;;;;;;8.17;5.83;;;;;;;3.13;41.75;99889.66;10397094;28;20303;-68
2023/04/05 01:59:53;;;;;;;6.13;5.17;;;;;;;2.87;41.91;99905.09;10395590;28;20237;-67
2023/04/05 02:04:54;;;;;;;7.80;6.20;;;;;;;3.80;41.00;99867.00;10406229;28;20238;-67
2023/04/05 02:09:56;;;;;;;7.30;6.17;;;;;;;2.56;41.98;99907.69;10402915;28;20681;-68
2023/04/05 02:14:57;;;;;;;7.57;6.17;;;;;;;2.87;41.74;99895.38;10401371;28;20240;-67
2023/04/05 02:20:05;;;;;;;10.87;5.63;;;;;;;2.58;42.53;99895.19;10402929;28;20235;-68
2023/04/05 02:25:10;;;;;;;6.00;5.07;;;;;;;1.87;43.49;99905.47;10398357;28;20266;-67
2023/04/05 02:30:15;;;;;;;7.07;5.80;;;;;;;1.69;43.57;99906.03;10395445;28;20230;-67
2023/04/05 02:35:16;;;;;;;8.30;5.83;;;;;;;2.60;43.05;99858.91;10402805;28;20606;-67
2023/04/05 02:40:20;;;;;;;8.37;5.73;;;;;;;1.93;43.96;99886.53;10397659;28;20245;-67
2023/04/05 02:45:21;;;;;;;6.63;5.40;;;;;;;1.23;44.62;99901.72;10395791;28;20230;-67
2023/04/05 02:50:23;;;;;;;6.70;5.97;;;;;;;1.29;44.68;99882.78;10402774;28;20242;-67
2023/04/05 02:55:25;;;;;;;8.67;5.63;;;;;;;1.86;44.37;99862.44;10397156;28;20220;-67
2023/04/05 03:00:27;;;;;;;7.43;5.90;;;;;;;1.61;43.83;99861.78;10394564;28;20493;-67
2023/04/05 03:05:29;;;;;;;6.53;5.13;;;;;;;2.41;42.73;99848.22;10377244;28;20440;-68
2023/04/05 03:10:34;;;;;;;6.57;5.80;;;;;;;2.56;42.42;99870.72;10364455;28;20238;-67
2023/04/05 03:15:36;;;;;;;6.53;5.93;;;;;;;2.04;42.77;99893.53;10400911;28;20602;-67
2023/04/05 03:20:39;;;;;;;7.87;6.20;;;;;;;2.17;42.63;99888.94;10396813;28;20453;-68
2023/04/05 03:25:41;;;;;;;6.70;5.97;;;;;;;2.21;42.45;99898.25;10393937;28;20235;-68
2023/04/05 03:30:43;;;;;;;8.87;6.17;;;;;;;2.57;42.40;99882.97;10394487;28;20269;-67
2023/04/05 03:35:45;;;;;;;6.97;6.33;;;;;;;1.69;43.53;99907.78;10398067;28;20235;-68
2023/04/05 03:40:47;;;;;;;7.07;6.37;;;;;;;2.00;43.46;99890.31;10399670;28;20229;-67
2023/04/05 03:45:49;;;;;;;7.40;6.53;;;;;;;2.08;43.40;99885.25;10399424;28;20320;-68
2023/04/05 03:50:50;;;;;;;7.27;6.53;;;;;;;1.83;43.61;99881.16;10405928;28;20263;-68
2023/04/05 03:55:53;;;;;;;7.17;5.43;;;;;;;2.71;42.67;99850.91;10407555;28;20222;-68
2023/04/05 04:00:55;;;;;;;8.27;6.10;;;;;;;2.26;42.66;99879.41;10399637;28;20237;-68
2023/04/05 04:05:57;;;;;;;6.40;5.80;;;;;;;2.38;42.28;99886.28;10403621;28;20241;-68
2023/04/05 04:10:59;;;;;;;6.87;5.53;;;;;;;1.82;42.86;99902.38;10399599;28;20260;-68
2023/04/05 04:16:02;;;;;;;7.33;6.63;;;;;;;2.10;43.09;99896.53;10406575;28;20780;-68
2023/04/05 04:21:05;;;;;;;6.33;5.73;;;;;;;3.12;41.61;99876.56;10406727;28;20234;-68
2023/04/05 04:26:08;;;;;;;7.63;5.90;;;;;;;3.84;40.58;99915.19;10406751;28;20248;-68
2023/04/05 04:31:13;;;;;;;6.17;5.57;;;;;;;3.45;40.92;99918.59;10403541;28;20245;-68
2023/04/05 04:36:16;;;;;;;8.87;5.70;;;;;;;3.98;40.32;99927.19;10405682;28;20277;-68
2023/04/05 04:41:21;;;;;;;6.43;5.43;;;;;;;2.75;40.88;99970.41;10407609;28;20245;-68
2023/04/05 04:46:26;;;;;;;6.70;5.50;;;;;;;4.97;39.33;99916.41;10401518;28;20312;-68
2023/04/05 04:51:27;;;;;;;6.03;5.43;;;;;;;4.17;39.47;99958.16;10400783;28;20251;-67
2023/04/05 04:56:29;;;;;;;6.20;5.60;;;;;;;3.04;40.63;99978.56;10400303;28;21518;-68
2023/04/05 05:01:32;;;;;;;7.87;6.27;;;;;;;3.82;39.92;99972.75;10402342;28;20233;-68
2023/04/05 05:06:34;;;;;;;8.27;6.37;;;;;;;3.17;40.21;100011.88;10410437;28;20237;-68
2023/04/05 05:11:36;;;;;;;6.07;4.93;;;;;;;5.07;38.42;99972.91;10403274;28;20614;-68
2023/04/05 05:16:37;;;;;;;6.63;6.03;;;;;;;4.26;39.04;100025.38;10402261;28;20232;-68
2023/04/05 05:21:39;;;;;;;6.73;5.63;;;;;;;2.06;41.29;100047.38;10411405;28;20234;-68
2023/04/05 05:26:41;;;;;;;7.43;6.60;;;;;;;3.31;40.78;100027.44;10403542;28;20713;-68
2023/04/05 05:31:42;;;;;;;6.30;5.37;;;;;;;3.20;40.73;100032.78;10403883;28;20229;-68
2023/04/05 05:36:44;;;;;;;7.27;5.27;;;;;;;1.86;42.12;100051.56;10401476;28;20230;-67
2023/04/05 05:41:46;;;;;;;7.57;5.13;;;;;;;3.01;40.87;100030.88;10403426;28;20244;-68
2023/04/05 05:46:48;;;;;;;8.67;6.40;;;;;;;2.75;41.14;100044.41;10405384;28;20236;-68
2023/04/05 05:51:51;;;;;;;6.10;5.50;;;;;;;2.05;42.22;100061.53;10400017;28;20281;-68
2023/04/05 05:56:53;;;;;;;6.20;5.17;;;;;;;2.32;42.22;100056.69;10400500;28;20234;-68
2023/04/05 06:01:54;;;;;;;6.07;5.50;;;;;;;2.14;42.88;100048.41;10401761;28;20458;-68
2023/04/05 06:06:57;;;;;;;7.70;5.60;;;;;;;4.11;41.26;99983.38;10398391;28;21024;-67
2023/04/05 06:11:58;;;;;;;7.07;6.37;;;;;;;3.17;41.97;100022.47;10398100;28;20351;-67
2023/04/05 06:17:00;;;;;;;7.10;5.80;;;;;;;2.22;42.25;100049.63;10397084;28;20291;-68
2023/04/05 06:22:02;;;;;;;6.53;5.93;;;;;;;3.86;41.28;100015.66;10400727;28;20855;-67
2023/04/05 06:27:03;;;;;;;8.83;6.70;;;;;;;3.95;40.89;100014.84;10403404;28;20234;-67
2023/04/05 06:32:05;;;;;;;6.53;5.77;;;;;;;4.46;40.59;100015.66;10403049;28;20238;-68
2023/04/05 06:37:07;;;;;;;9.83;7.10;;;;;;;4.53;39.30;100070.63;10365935;28;20226;-66
2023/04/05 06:42:08;;;;;;;6.90;5.63;;;;;;;4.61;39.87;100066.44;10350097;28;20583;-67
2023/04/05 06:47:10;;;;;;;6.47;5.43;;;;;;;3.97;39.88;100097.66;10402583;28;20261;-67
2023/04/05 06:52:11;;;;;;;6.83;5.97;;;;;;;4.89;39.31;100073.56;10360153;28;20649;-67
2023/04/05 06:57:13;;;;;;;7.23;5.53;;;;;;;4.16;39.95;100121.53;10357457;28;20227;-67
2023/04/05 07:02:15;;;;;;;7.17;5.60;;;;;;;3.18;40.98;100125.47;10354650;28;20237;-67
2023/04/05 07:07:16;;;;;;;8.37;6.50;;;;;;;4.74;39.98;100096.16;10354750;28;20234;-68
2023/04/05 07:12:18;;;;;;;7.50;5.70;;;;;;;4.75;39.87;100089.91;10350849;28;20235;-67
2023/04/05 07:17:20;;;;;;;5.93;5.20;;;;;;;5.09;40.32;100058.47;10352644;28;20909;-67
2023/04/05 07:22:22;;;;;;;6.37;5.67;;;;;;;4.72;39.54;100095.47;10358992;28;20255;-68
2023/04/05 07:27:23;;;;;;;7.07;5.97;;;;;;;4.54;39.33;100108.56;10361406;28;20282;-68
2023/04/05 07:32:25;;;;;;;8.07;5.97;;;;;;;5.08;38.94;100088.66;10360130;28;20302;-68
2023/04/05 07:37:27;;;;;;;6.73;5.97;;;;;;;6.57;37.65;100092.28;10366527;28;20236;-68
2023/04/05 07:42:30;;;;;;;6.13;5.33;;;;;;;4.80;38.80;100132.75;10369280;28;20242;-68
2023/04/05 07:47:35;;;;;;;8.10;5.77;;;;;;;4.68;39.60;100163.03;10368874;28;20237;-68
2023/04/05 07:52:37;;;;;;;5.67;4.70;;;;;;;4.47;39.90;100155.13;10366435;28;20347;-69
2023/04/05 07:57:38;;;;;;;5.20;4.63;;;;;;;6.50;37.48;100090.38;10368057;28;20240;-68
2023/04/05 08:02:40;;;;;;;6.57;4.67;;;;;;;5.30;38.02;100164.44;10365790;28;20239;-69
2023/04/05 08:07:42;;;;;;;7.27;5.13;;;;;;;6.96;37.26;100078.72;10384082;28;20310;-68
2023/04/05 08:12:44;;;;;;;6.33;4.90;;;;;;;6.59;37.88;100097.47;10394188;28;20237;-68
2023/04/05 08:17:45;;;;;;;5.13;4.63;;;;;;;6.15;37.94;100131.84;10370736;28;20719;-68
2023/04/05 08:22:47;;;;;;;7.30;4.43;;;;;;;6.10;36.46;100171.31;10361099;28;20242;-69
2023/04/05 08:27:49;;;;;;;6.83;5.00;;;;;;;6.76;36.60;100128.56;10368533;28;20245;-68
2023/04/05 08:32:50;;;;;;;6.57;4.83;;;;;;;8.10;35.27;100093.78;10367353;28;20245;-68
2023/04/05 08:37:52;;;;;;;6.50;4.63;;;;;;;8.44;35.09;100121.38;10365388;28;20295;-69
2023/04/05 08:43:20;;;;;;;5.13;4.63;;;;;;;8.67;34.78;100110.91;10362825;28;20237;-68
2023/04/05 08:48:22;;;;;;;5.03;4.53;;;;;;;8.24;35.25;100126.97;10375498;28;20244;-69
2023/04/05 08:53:24;;;;;;;5.23;4.73;;;;;;;7.84;35.29;100151.56;10370379;28;20225;-68
2023/04/05 08:58:26;;;;;;;5.63;4.97;;;;;;;7.60;34.87;100202.84;10369865;28;20730;-68
2023/04/05 09:03:36;;;;;;;5.60;5.10;;;;;;;8.79;34.50;100124.78;10365177;28;20842;-68
2023/04/05 09:08:39;;;;;;;5.30;4.70;;;;;;;8.66;34.65;100160.78;10367590;28;20780;-68
2023/04/05 09:13:40;;;;;;;5.90;5.40;;;;;;;9.69;33.13;100106.09;10353934;28;20685;-69
2023/04/05 09:18:42;;;;;;;6.57;4.30;;;;;;;9.29;33.99;100139.88;10366001;28;20228;-68
2023/04/05 09:23:53;;;;;;;8.00;5.07;;;;;;;8.91;33.89;100171.56;10367039;28;20691;-69
2023/04/05 09:28:54;;;;;;;6.33;4.87;;;;;;;8.91;33.92;100160.03;10366225;28;20679;-69
2023/04/05 09:34:02;;;;;;;5.57;4.30;;;;;;;10.03;33.03;100129.09;10369238;28;20855;-69
2023/04/05 09:39:07;;;;;;;5.93;4.67;;;;;;;9.56;32.96;100152.03;10365527;28;20252;-69
2023/04/05 09:44:09;;;;;;;5.13;4.40;;;;;;;10.07;32.92;100134.91;10360523;28;20739;-69
2023/04/05 09:49:11;;;;;;;5.87;4.53;;;;;;;10.29;32.28;100139.53;10361316;28;20236;-69
2023/04/05 09:54:12;;;;;;;5.63;4.30;;;;;;;11.07;32.00;100100.25;10363813;28;20229;-69
2023/04/05 09:59:16;;;;;;;5.60;4.80;;;;;;;8.90;32.04;100145.84;10366369;28;20236;-69
2023/04/05 10:04:23;;;;;;;6.47;4.20;;;;;;;8.89;32.50;100200.22;10362211;28;20233;-69
2023/04/05 10:09:24;;;;;;;6.57;5.07;;;;;;;10.08;31.64;100116.03;10355741;28;20237;-69
2023/04/05 10:14:26;;;;;;;5.90;4.67;;;;;;;7.23;32.23;100188.72;10358443;28;20221;-69
2023/04/05 10:20:05;;;;;;;7.97;5.00;;;;;;;9.77;31.48;100151.50;10365656;28;20305;-69
2023/04/05 10:25:29;;;;;;;5.47;4.37;;;;;;;10.28;30.89;100095.06;10362224;28;20225;-68
2023/04/05 10:30:39;;;;;;;7.97;4.63;;;;;;;10.29;31.37;100088.72;10363739;28;20328;-69
2023/04/05 10:35:53;;;;;;;9.23;4.63;;;;;;;9.82;31.38;100126.09;10358705;28;20343;-69
2023/04/05 10:41:09;;;;;;;6.20;5.10;;;;;;;9.61;31.17;100180.09;10361511;28;20466;-69
2023/04/05 10:46:17;;;;;;;6.20;4.73;;;;;;;11.01;30.24;100106.31;10363130;28;20298;-69
2023/04/05 10:51:22;;;;;;;7.03;5.30;;;;;;;12.00;29.51;100063.31;10363425;28;20351;-69
2023/04/05 10:56:25;;;;;;;7.80;4.80;;;;;;;9.89;31.57;100135.97;10352525;28;20762;-69
2023/04/05 11:06:34;;;;;;;4.93;4.43;;;;;;;8.75;33.23;100115.44;10357697;28;20795;-69
2023/04/05 11:11:50;;;;;;;6.73;4.37;;;;;;;7.44;32.25;100107.69;10343778;28;20234;-68
2023/04/05 11:16:55;;;;;;;5.20;4.70;;;;;;;9.75;31.68;100099.22;10383703;28;20224;-70
2023/04/05 11:22:00;;;;;;;5.90;4.40;;;;;;;9.67;30.80;100118.81;10389148;28;20232;-68
2023/04/05 11:27:08;;;;;;;5.50;4.50;;;;;;;10.71;31.12;100025.03;10382878;28;20220;-68
2023/04/05 11:32:13;;;;;;;4.73;4.33;;;;;;;8.48;31.70;100064.03;10373545;28;20542;-70
2023/04/05 11:37:14;;;;;;;5.40;4.80;;;;;;;7.95;30.97;100076.72;10386180;28;20688;-70
2023/04/05 11:42:17;;;;;;;8.03;4.43;;;;;;;11.06;30.38;99999.50;10383351;28;20230;-69
2023/04/05 11:47:20;;;;;;;6.60;4.40;;;;;;;11.00;31.04;100044.91;10386959;28;20213;-68
2023/04/05 11:52:22;;;;;;;5.17;4.47;;;;;;;10.36;32.40;100064.75;10382194;28;20221;-70
2023/04/05 11:57:24;;;;;;;5.10;4.60;;;;;;;10.92;29.72;100059.22;10386340;28;20216;-70
2023/04/05 12:02:25;;;;;;;5.07;3.57;;;;;;;10.95;29.31;100053.50;10383094;28;20708;-68
2023/04/05 12:07:30;;;;;;;4.80;4.03;;;;;;;10.96;30.30;100032.91;10377641;28;20337;-70
2023/04/05 12:12:43;;;;;;;7.10;4.97;;;;;;;10.68;29.42;100070.88;10380104;28;20240;-70
2023/04/05 12:17:50;;;;;;;5.60;4.60;;;;;;;9.39;31.59;100046.22;10345067;28;20288;-70
2023/04/05 12:22:54;;;;;;;6.27;4.60;;;;;;;11.63;30.57;99965.91;10319238;28;20237;-70
2023/04/05 12:28:03;;;;;;;4.70;3.93;;;;;;;9.72;30.37;100022.06;10355978;28;20279;-70
2023/04/05 12:33:08;;;;;;;5.00;4.07;;;;;;;11.60;29.69;99968.94;10349592;28;20237;-70
2023/04/05 12:38:14;;;;;;;5.83;4.40;;;;;;;11.04;29.13;99988.13;10349947;28;20302;-68
2023/04/05 12:43:18;;;;;;;7.07;4.70;;;;;;;11.34;29.47;99981.97;10354183;28;20232;-70
2023/04/05 12:48:24;;;;;;;4.70;4.23;;;;;;;9.22;30.79;99952.78;10337022;28;20233;-70
2023/04/05 12:53:27;;;;;;;5.40;4.77;;;;;;;10.72;29.99;99980.38;10309905;28;20245;-70
2023/04/05 12:58:34;;;;;;;6.43;5.17;;;;;;;9.85;29.89;99952.06;10324307;28;20226;-70
2023/04/05 13:03:35;;;;;;;5.20;3.87;;;;;;;10.45;29.05;99991.47;10359860;28;20619;-68
2023/04/05 13:08:37;;;;;;;5.33;4.03;;;;;;;12.12;28.52;99936.75;10356656;28;20347;-68
2023/04/05 13:13:39;;;;;;;4.40;4.00;;;;;;;10.50;30.08;99959.66;10346764;28;20364;-68
2023/04/05 13:18:40;;;;;;;6.00;4.37;;;;;;;11.44;30.13;99951.22;10351168;28;20873;-70
2023/04/05 13:23:42;;;;;;;6.90;4.97;;;;;;;10.82;29.99;99978.31;10348293;28;20233;-70
2023/04/05 13:28:44;;;;;;;6.17;5.10;;;;;;;9.63;29.58;99910.91;10351414;28;20229;-70
2023/04/05 13:33:45;;;;;;;7.97;5.57;;;;;;;10.35;29.50;99960.63;10345012;28;20236;-70
2023/04/05 13:38:47;;;;;;;6.93;4.90;;;;;;;10.77;29.08;99964.66;10356086;28;21783;-68
2023/04/05 13:43:49;;;;;;;7.27;4.87;;;;;;;11.03;29.87;99951.66;10354050;28;20242;-68
2023/04/05 13:48:51;;;;;;;9.93;7.53;;;;;;;10.98;28.98;99927.28;10356577;28;20241;-70
2023/04/05 13:53:52;;;;;;;5.50;3.90;;;;;;;12.26;28.23;99898.28;10353794;28;20368;-68
2023/04/05 13:58:54;;;;;;;6.73;5.63;;;;;;;11.53;27.28;99941.22;10349189;28;20608;-70
2023/04/05 14:03:56;;;;;;;40.03;32.83;;;;;;;11.37;27.80;99957.47;10350810;28;20244;-70
2023/04/05 14:08:58;;;;;;;5.07;4.57;;;;;;;11.55;27.09;99943.72;10357098;28;20241;-71
2023/04/05 14:13:59;;;;;;;4.20;3.80;;;;;;;11.77;26.45;99907.91;10352429;28;20732;-71
2023/04/05 14:19:01;;;;;;;6.17;4.83;;;;;;;11.93;26.70;99920.28;10355484;28;20658;-70
2023/04/05 14:24:03;;;;;;;4.77;3.50;;;;;;;10.29;27.14;99903.28;10352833;28;20664;-70
2023/04/05 14:29:04;;;;;;;47.63;36.87;;;;;;;11.56;26.15;99915.91;10353070;28;20232;-73
2023/04/05 14:34:06;;;;;;;5.67;4.73;;;;;;;11.99;27.62;99881.94;10351755;28;20655;-72
2023/04/05 14:39:08;;;;;;;6.30;5.20;;;;;;;11.67;27.28;99893.97;10351461;28;20239;-72
2023/04/05 14:44:10;;;;;;;18.80;16.80;;;;;;;11.48;27.56;99867.78;10355656;28;20237;-73
2023/04/05 14:49:11;;;;;;;4.30;3.90;;;;;;;12.07;26.19;99842.63;10358302;28;20290;-73
2023/04/05 14:54:13;;;;;;;4.47;4.07;;;;;;;12.79;26.77;99782.47;10342980;28;20225;-73
2023/04/05 14:59:15;;;;;;;5.40;4.53;;;;;;;13.35;26.03;99811.03;10357054;28;20770;-72
2023/04/05 15:04:17;;;;;;;4.87;4.37;;;;;;;11.67;27.32;99864.50;10349127;28;20261;-71
2023/04/05 15:09:18;;;;;;;5.20;3.97;;;;;;;12.45;26.58;99802.03;10352056;28;20268;-71
2023/04/05 15:14:20;;;;;;;4.57;3.97;;;;;;;11.44;26.58;99837.84;10352148;28;20229;-67
2023/04/05 15:19:34;;;;;;;6.47;4.80;;;;;;;12.40;27.37;99816.06;10352227;28;20233;-69
2023/04/05 15:24:36;;;;;;;6.43;4.20;;;;;;;10.92;27.02;99731.72;10355934;28;20225;-69
2023/04/05 15:29:38;;;;;;;7.90;5.73;;;;;;;13.14;26.98;99752.00;10347725;28;20686;-68
2023/04/05 15:34:40;;;;;;;6.10;3.90;;;;;;;11.71;27.17;99798.78;10350668;28;20217;-66
2023/04/05 15:39:41;;;;;;;7.27;5.10;;;;;;;12.83;27.44;99772.97;10354772;28;20252;-67
2023/04/05 15:44:43;;;;;;;9.23;4.37;;;;;;;12.67;27.82;99794.78;10353464;28;20233;-69
2023/04/05 15:49:45;;;;;;;5.27;4.60;;;;;;;12.25;28.13;99765.19;10354615;28;20308;-69
2023/04/05 15:54:47;;;;;;;7.23;5.17;;;;;;;10.92;28.28;99753.16;10358892;28;20314;-68
2023/04/05 15:59:48;;;;;;;6.27;4.90;;;;;;;12.34;28.22;99750.56;10366046;28;20631;-69
2023/04/05 16:04:50;;;;;;;5.90;4.77;;;;;;;12.06;27.72;99761.31;10359244;28;20247;-68
2023/04/05 16:09:52;;;;;;;6.20;4.73;;;;;;;12.04;28.75;99755.31;10361179;28;20347;-69
2023/04/05 16:14:53;;;;;;;7.13;4.50;;;;;;;12.16;28.36;99750.25;10356310;28;20233;-69
2023/04/05 16:19:55;;;;;;;9.93;7.30;;;;;;;12.48;28.02;99748.00;10355939;28;20637;-69
2023/04/05 16:24:57;;;;;;;5.87;4.63;;;;;;;12.99;27.28;99720.78;10358575;28;20562;-68
2023/04/05 16:29:59;;;;;;;6.33;4.70;;;;;;;12.65;27.69;99730.53;10359347;28;20241;-69
2023/04/05 16:35:01;;;;;;;8.37;5.43;;;;;;;12.89;27.92;99741.78;10355624;28;20248;-69
2023/04/05 16:40:03;;;;;;;10.27;6.67;;;;;;;12.22;28.68;99748.66;10328426;28;20242;-69
2023/04/05 16:45:05;;;;;;;5.97;5.07;;;;;;;12.73;28.63;99734.91;10303518;28;20235;-70
2023/04/05 16:50:07;;;;;;;8.07;6.47;;;;;;;11.98;28.64;99726.63;10337204;28;20536;-70
2023/04/05 16:55:09;;;;;;;11.93;7.97;;;;;;;11.69;29.27;99709.66;10354321;28;20233;-69
2023/04/05 17:00:12;;;;;;;32.90;18.97;;;;;;;12.09;29.44;99733.28;10354079;28;20229;-70
2023/04/05 17:05:15;;;;;;;36.10;23.90;;;;;;;12.99;29.07;99723.47;10345047;28;20229;-70
2023/04/05 17:10:16;;;;;;;7.47;5.23;;;;;;;13.27;28.56;99693.75;10345424;28;20240;-69
2023/04/05 17:15:18;;;;;;;6.97;5.80;;;;;;;12.91;28.61;99718.28;10321163;28;20243;-69
2023/04/05 17:20:20;;;;;;;6.83;4.40;;;;;;;13.35;28.85;99700.00;10333265;28;20229;-69
2023/04/05 17:25:21;;;;;;;4.80;4.37;;;;;;;12.39;27.93;99709.75;10323553;28;20234;-70
2023/04/05 17:30:25;;;;;;;12.33;9.40;;;;;;;11.13;28.62;99669.38;10340293;28;21016;-70
2023/04/05 17:35:26;;;;;;;6.20;4.83;;;;;;;12.55;27.97;99728.25;10356271;28;20225;-71
2023/04/05 17:40:29;;;;;;;5.87;4.40;;;;;;;12.52;28.22;99728.63;10349138;28;20633;-69
2023/04/05 17:45:31;;;;;;;5.07;4.23;;;;;;;10.30;28.95;99669.59;10347231;28;20226;-69
2023/04/05 17:50:34;;;;;;;5.43;4.23;;;;;;;11.29;29.10;99738.75;10355412;28;20244;-68
2023/04/05 17:55:36;;;;;;;6.80;4.77;;;;;;;11.92;28.81;99738.94;10356424;28;20226;-69
2023/04/05 18:00:37;;;;;;;5.60;4.60;;;;;;;11.92;28.40;99738.94;10357312;28;20231;-69
2023/04/05 18:05:39;;;;;;;5.63;4.43;;;;;;;12.13;28.26;99746.13;10355390;28;20233;-69
2023/04/05 18:10:41;;;;;;;6.07;5.33;;;;;;;11.25;28.92;99724.06;10351044;28;20243;-69
2023/04/05 18:15:42;;;;;;;7.60;5.10;;;;;;;10.84;28.92;99701.38;10348033;28;20232;-69
2023/04/05 18:20:48;;;;;;;5.17;4.63;;;;;;;12.16;28.34;99737.69;10339166;28;20252;-69
2023/04/05 18:25:51;;;;;;;6.43;5.20;;;;;;;12.71;28.06;99736.97;10343135;28;20237;-69
2023/04/05 18:30:53;;;;;;;7.90;5.80;;;;;;;11.75;29.10;99748.28;10345129;28;20655;-69
2023/04/05 18:35:55;;;;;;;6.77;5.30;;;;;;;11.68;28.59;99737.50;10346193;28;20244;-69
2023/04/05 18:41:02;;;;;;;6.50;5.40;;;;;;;11.85;28.90;99742.59;10346555;28;20233;-69
2023/04/05 18:46:03;;;;;;;10.23;5.50;;;;;;;11.40;29.01;99746.28;10352842;28;20241;-69
2023/04/05 18:51:05;;;;;;;8.07;5.33;;;;;;;11.07;29.15;99765.50;10350540;28;20244;-69
2023/04/05 18:56:08;;;;;;;7.03;5.57;;;;;;;11.43;29.00;99767.34;10340179;28;20732;-69
2023/04/05 19:01:14;;;;;;;13.23;8.50;;;;;;;11.61;28.21;99780.31;10348455;28;20229;-69
2023/04/05 19:06:16;;;;;;;7.60;6.17;;;;;;;11.55;28.50;99782.91;10344069;28;20232;-69
2023/04/05 19:11:19;;;;;;;12.30;7.40;;;;;;;10.96;28.24;99783.91;10344870;28;20248;-68
2023/04/05 19:16:20;;;;;;;8.50;5.97;;;;;;;10.81;28.73;99787.41;10349682;28;20249;-69
2023/04/05 19:21:23;;;;;;;5.53;4.80;;;;;;;10.94;28.19;99789.44;10348143;28;20229;-69
2023/04/05 19:26:25;;;;;;;5.57;4.80;;;;;;;10.62;28.54;99775.41;10350640;28;20776;-69
2023/04/05 19:31:26;;;;;;;7.73;5.83;;;;;;;11.49;28.33;99803.28;10353842;28;20704;-69
2023/04/05 19:36:28;;;;;;;4.57;4.17;;;;;;;11.61;28.71;99817.00;10358378;28;20240;-69
2023/04/05 19:41:31;;;;;;;7.13;4.80;;;;;;;11.06;27.83;99808.53;10359481;28;20233;-69
2023/04/05 19:46:38;;;;;;;5.63;4.53;;;;;;;10.06;28.45;99785.69;10358566;28;20234;-69
2023/04/05 19:51:41;;;;;;;9.63;7.13;;;;;;;10.94;30.63;99792.13;10355694;28;20233;-69
2023/04/05 19:56:43;;;;;;;7.80;6.37;;;;;;;11.33;31.21;99774.84;10355688;28;20229;-70
2023/04/05 20:01:46;;;;;;;10.23;8.40;;;;;;;10.56;32.01;99765.44;10352897;28;20237;-69
2023/04/05 20:06:52;;;;;;;11.73;9.30;;;;;;;8.36;33.23;99716.06;10352568;28;20235;-69
2023/04/05 20:11:57;;;;;;;13.20;11.23;;;;;;;7.94;32.80;99803.25;10350602;28;20444;-69
2023/04/05 20:17:00;;;;;;;10.47;7.17;;;;;;;8.88;30.12;99797.44;10352593;28;20226;-67
2023/04/05 20:22:05;;;;;;;9.10;5.90;;;;;;;9.07;29.55;99786.31;10355399;28;20255;-67
2023/04/05 20:27:07;;;;;;;7.30;5.20;;;;;;;11.06;27.62;99742.41;10353718;28;20316;-69
2023/04/05 20:32:09;;;;;;;5.67;4.70;;;;;;;10.44;28.65;99780.28;10353482;28;20250;-68
2023/04/05 20:37:12;;;;;;;22.07;14.00;;;;;;;9.12;33.62;99799.97;10350133;28;20264;-67
2023/04/05 20:42:14;;;;;;;13.47;8.93;;;;;;;10.80;29.71;99755.47;10350920;28;20229;-68
2023/04/05 20:47:15;;;;;;;16.20;10.00;;;;;;;9.19;31.46;99781.44;10350244;28;20234;-67
2023/04/05 20:52:17;;;;;;;14.37;12.13;;;;;;;7.71;35.21;99811.88;10355402;28;20230;-68
2023/04/05 20:57:21;;;;;;;13.80;10.77;;;;;;;10.09;33.39;99713.13;10348177;28;20585;-68
2023/04/05 21:02:23;;;;;;;17.53;10.47;;;;;;;9.71;33.12;99748.69;10349776;28;20243;-68
2023/04/05 21:07:25;;;;;;;12.80;8.70;;;;;;;8.38;33.80;99772.69;10353715;28;20236;-69
2023/04/05 21:12:27;;;;;;;10.63;8.63;;;;;;;8.59;32.36;99750.78;10351680;28;20244;-69
2023/04/05 21:17:28;;;;;;;9.13;6.93;;;;;;;10.78;30.64;99691.44;10348725;28;20237;-68
2023/04/05 21:22:30;;;;;;;9.03;6.50;;;;;;;11.01;30.39;99693.13;10356156;28;20295;-68
2023/04/05 21:27:32;;;;;;;9.43;6.30;;;;;;;10.10;30.92;99738.84;10349408;28;20237;-68
2023/04/05 21:32:34;;;;;;;8.20;6.13;;;;;;;10.41;31.10;99745.88;10355381;28;20272;-68
2023/04/05 21:37:36;;;;;;;8.87;6.60;;;;;;;9.24;32.25;99767.56;10352860;28;20242;-69
2023/04/05 21:42:38;;;;;;;9.13;6.17;;;;;;;7.93;33.86;99782.91;10354700;28;20316;-68
2023/04/05 21:47:40;;;;;;;7.17;6.17;;;;;;;9.02;33.51;99722.78;10355896;28;20672;-68
2023/04/05 21:52:42;;;;;;;7.70;6.30;;;;;;;9.51;32.54;99731.47;10352617;28;20233;-69
2023/04/05 21:57:43;;;;;;;8.23;6.93;;;;;;;6.86;34.40;99798.66;10339775;28;20206;-69
2023/04/05 22:02:45;;;;;;;7.93;7.10;;;;;;;7.58;34.22;99746.75;10335965;28;20652;-68
2023/04/05 22:07:47;;;;;;;10.13;7.30;;;;;;;6.86;35.41;99753.44;10343526;28;20225;-69
2023/04/05 22:12:49;;;;;;;7.53;6.20;;;;;;;8.04;34.13;99709.81;10331613;28;20317;-69
2023/04/05 22:17:51;;;;;;;11.33;8.13;;;;;;;10.30;32.68;99661.59;10332373;28;20225;-69
2023/04/05 22:22:53;;;;;;;14.00;10.77;;;;;;;9.22;33.54;99722.34;10337846;28;20790;-69
2023/04/05 22:27:58;;;;;;;11.77;8.47;;;;;;;7.68;34.36;99758.91;10336155;28;20784;-69
2023/04/05 22:33:00;;;;;;;10.43;7.80;;;;;;;9.35;32.97;99695.06;10331616;28;20531;-69
2023/04/05 22:38:02;;;;;;;8.43;7.20;;;;;;;9.69;32.81;99699.13;10337104;28;20465;-69
2023/04/05 22:43:04;;;;;;;8.17;6.77;;;;;;;9.81;32.79;99689.66;10336488;28;20225;-69
2023/04/05 22:48:06;;;;;;;8.33;6.90;;;;;;;9.47;33.26;99709.66;10335036;28;20232;-69
2023/04/05 22:53:07;;;;;;;12.13;8.10;;;;;;;8.14;34.23;99750.44;10335397;28;20361;-69
2023/04/05 22:58:09;;;;;;;12.10;9.07;;;;;;;9.41;33.54;99691.66;10333976;28;20214;-69
2023/04/05 23:03:11;;;;;;;8.70;7.33;;;;;;;9.21;33.71;99689.47;10337545;28;20236;-69
2023/04/05 23:08:12;;;;;;;10.40;8.20;;;;;;;8.67;34.44;99724.94;10339230;28;20229;-69
2023/04/05 23:13:14;;;;;;;9.87;8.33;;;;;;;8.75;34.68;99702.72;10339131;28;20798;-69
2023/04/05 23:18:21;;;;;;;7.57;6.70;;;;;;;7.45;35.42;99736.59;10338885;28;20205;-69
2023/04/05 23:23:22;;;;;;;6.37;5.23;;;;;;;6.66;36.19;99728.06;10338426;28;20298;-69
2023/04/05 23:28:24;;;;;;;6.37;5.77;;;;;;;6.84;36.70;99722.69;10331719;28;20221;-69
2023/04/05 23:33:25;;;;;;;6.20;5.50;;;;;;;4.75;40.49;99750.53;10337127;28;20228;-69
2023/04/05 23:38:27;;;;;;;6.37;5.77;;;;;;;7.00;37.78;99648.22;10335370;28;20221;-69